Time;durP1;ratioP1;P1;durP2;ratioP2;P2;SDS_P1;SDS_P2;PMS_P1;PMS_P2;Temp;Humidity;BMP_temperature;BMP_pressure;BME280_temperature;BME280_humidity;BME280_pressure;Samples;Min_cycle;Max_cycle;Signal;HPM_P1;HPM_P2
2023/05/25 00:00:09;;;;;;;16.05;6.55;;;10.40;99.90;;;;;;5044563;28;20425;-83
2023/05/25 00:02:35;;;;;;;16.60;6.47;;;10.50;99.90;;;;;;5027546;28;20508;-88
2023/05/25 00:05:01;;;;;;;14.52;6.32;;;10.40;99.90;;;;;;5024457;28;20430;-86
2023/05/25 00:07:27;;;;;;;13.63;6.05;;;10.40;99.90;;;;;;5046311;28;20947;-87
2023/05/25 00:09:52;;;;;;;16.48;7.13;;;10.50;99.90;;;;;;5042511;28;20506;-80
2023/05/25 00:12:18;;;;;;;15.00;6.88;;;10.40;99.90;;;;;;5039870;28;20455;-84
2023/05/25 00:14:44;;;;;;;16.90;6.22;;;10.50;99.90;;;;;;5031199;28;20498;-88
2023/05/25 00:17:10;;;;;;;16.15;6.72;;;10.50;99.90;;;;;;5026750;28;20454;-87
2023/05/25 00:19:41;;;;;;;15.48;6.30;;;10.40;99.90;;;;;;5021001;28;20775;-87
2023/05/25 00:22:07;;;;;;;20.73;7.18;;;10.40;99.90;;;;;;5029412;28;20423;-86
2023/05/25 00:24:33;;;;;;;15.45;6.43;;;10.40;99.90;;;;;;5031336;28;20510;-83
2023/05/25 00:26:59;;;;;;;15.15;6.90;;;10.40;99.90;;;;;;5028670;28;20435;-87
2023/05/25 00:29:25;;;;;;;22.00;7.70;;;10.50;99.90;;;;;;5029236;28;20564;-81
2023/05/25 00:31:51;;;;;;;14.32;5.55;;;10.30;99.90;;;;;;5026833;28;20426;-86
2023/05/25 00:34:17;;;;;;;14.05;7.15;;;10.30;99.90;;;;;;5044810;28;20419;-79
2023/05/25 00:36:43;;;;;;;16.00;6.90;;;10.30;99.90;;;;;;5034575;28;20422;-89
2023/05/25 00:39:09;;;;;;;16.65;6.35;;;10.30;99.90;;;;;;5037035;28;20828;-87
2023/05/25 00:41:40;;;;;;;12.43;5.77;;;10.30;99.90;;;;;;5031784;28;20788;-81
2023/05/25 00:44:06;;;;;;;15.25;6.60;;;10.30;99.90;;;;;;5041788;28;20526;-86
2023/05/25 00:46:33;;;;;;;12.85;6.32;;;10.30;99.90;;;;;;5035390;28;20545;-87
2023/05/25 00:48:59;;;;;;;16.83;7.93;;;10.30;99.90;;;;;;5033723;28;20487;-87
2023/05/25 00:51:26;;;;;;;13.07;6.63;;;10.30;99.90;;;;;;5029986;28;20457;-85
2023/05/25 00:53:52;;;;;;;16.00;7.97;;;10.20;99.90;;;;;;5042913;28;20508;-87
2023/05/25 00:56:21;;;;;;;14.75;6.70;;;10.20;99.90;;;;;;5034806;28;20465;-78
2023/05/25 00:58:52;;;;;;;17.38;7.32;;;10.20;99.90;;;;;;5025826;28;20424;-86
2023/05/25 01:01:20;;;;;;;15.48;6.68;;;10.20;99.90;;;;;;5033736;28;20423;-83
2023/05/25 01:03:52;;;;;;;22.75;7.65;;;10.20;99.90;;;;;;5050268;28;20456;-90
2023/05/25 01:06:20;;;;;;;19.85;7.40;;;10.10;99.90;;;;;;5037260;28;20518;-84
2023/05/25 01:08:51;;;;;;;12.35;7.05;;;10.10;99.90;;;;;;5032964;28;20459;-86
2023/05/25 01:11:22;;;;;;;18.13;7.40;;;10.00;99.90;;;;;;5031969;28;20438;-81
2023/05/25 01:13:51;;;;;;;17.75;7.95;;;10.00;99.90;;;;;;5034270;28;20425;-76
2023/05/25 01:16:17;;;;;;;16.55;7.35;;;10.00;99.90;;;;;;5037817;28;20501;-88
2023/05/25 01:18:42;;;;;;;16.48;6.53;;;10.10;99.90;;;;;;5012982;28;20439;-79
2023/05/25 01:21:20;;;;;;;16.30;7.63;;;10.10;99.90;;;;;;5025017;28;20917;-88
2023/05/25 01:23:51;;;;;;;17.17;8.32;;;10.10;99.90;;;;;;5021110;28;20503;-85
2023/05/25 01:26:19;;;;;;;15.57;7.37;;;10.00;99.90;;;;;;5048706;28;20608;-76
2023/05/25 01:28:50;;;;;;;16.40;7.60;;;9.90;99.90;;;;;;5029147;28;20989;-77
2023/05/25 01:31:20;;;;;;;16.10;8.20;;;10.00;99.90;;;;;;5039713;28;20468;-78
2023/05/25 01:33:48;;;;;;;15.27;8.00;;;10.00;99.90;;;;;;5044005;28;20487;-80
2023/05/25 01:36:14;;;;;;;19.10;9.13;;;10.00;99.90;;;;;;5035212;28;20460;-81
2023/05/25 01:38:40;;;;;;;18.58;8.43;;;10.10;99.90;;;;;;5032172;28;20508;-89
2023/05/25 01:41:06;;;;;;;17.02;8.25;;;10.00;99.90;;;;;;5047186;28;20450;-81
2023/05/25 01:43:31;;;;;;;13.93;7.97;;;9.90;99.90;;;;;;5030440;28;20435;-90
2023/05/25 01:46:08;;;;;;;17.07;8.93;;;10.20;99.90;;;;;;5030180;28;20431;-86
2023/05/25 01:48:53;;;;;;;16.80;8.68;;;10.00;99.90;;;;;;5027651;28;20426;-83
2023/05/25 01:51:57;;;;;;;20.15;9.90;;;10.00;99.90;;;;;;5036239;28;20490;-82
2023/05/25 01:54:33;;;;;;;21.33;8.90;;;10.10;99.90;;;;;;5033113;28;20457;-80
2023/05/25 01:57:04;;;;;;;16.20;7.75;;;10.00;99.90;;;;;;5045499;28;20437;-79
2023/05/25 01:59:31;;;;;;;19.77;9.23;;;10.10;99.90;;;;;;5045289;28;20441;-77
2023/05/25 02:01:58;;;;;;;17.23;8.00;;;10.00;99.90;;;;;;5049943;28;20459;-81
2023/05/25 02:04:24;;;;;;;19.00;8.13;;;9.90;99.90;;;;;;5046676;28;20421;-75
2023/05/25 02:06:51;;;;;;;18.40;8.10;;;9.90;99.90;;;;;;5055320;28;20438;-76
2023/05/25 02:09:16;;;;;;;19.20;9.52;;;9.90;99.90;;;;;;5045308;28;20457;-85
2023/05/25 02:11:42;;;;;;;16.83;7.70;;;10.00;99.90;;;;;;5055294;28;20425;-86
2023/05/25 02:14:09;;;;;;;21.33;9.03;;;10.10;99.90;;;;;;5047340;28;20451;-90
2023/05/25 02:16:35;;;;;;;18.58;8.82;;;10.00;99.90;;;;;;5034622;28;20523;-90
2023/05/25 02:19:01;;;;;;;18.27;8.35;;;10.10;99.90;;;;;;5037760;28;20982;-83
2023/05/25 02:21:27;;;;;;;16.70;8.57;;;10.00;99.90;;;;;;5035085;28;20503;-87
2023/05/25 02:23:53;;;;;;;14.45;8.35;;;10.20;99.90;;;;;;5032494;28;20420;-88
2023/05/25 02:26:19;;;;;;;17.63;10.23;;;10.10;99.90;;;;;;5034224;28;20494;-85
2023/05/25 02:28:45;;;;;;;22.60;9.77;;;10.20;99.90;;;;;;5026839;28;20836;-87
2023/05/25 02:31:10;;;;;;;17.77;9.07;;;10.10;99.90;;;;;;5027502;28;20464;-84
2023/05/25 02:33:36;;;;;;;18.37;10.37;;;10.20;99.90;;;;;;5026680;28;20423;-86
2023/05/25 02:36:02;;;;;;;22.40;10.70;;;10.00;99.90;;;;;;5033754;28;20428;-84
2023/05/25 02:38:27;;;;;;;19.52;10.65;;;10.20;99.90;;;;;;5032862;28;20433;-88
2023/05/25 02:40:53;;;;;;;21.98;10.15;;;10.10;99.90;;;;;;5044730;28;20422;-84
2023/05/25 02:43:18;;;;;;;17.30;10.02;;;10.10;99.90;;;;;;5034476;28;20975;-88
2023/05/25 02:45:44;;;;;;;22.23;10.23;;;10.00;99.90;;;;;;5029735;28;20506;-84
2023/05/25 02:48:10;;;;;;;15.47;9.77;;;10.10;99.90;;;;;;5046051;28;21030;-84
2023/05/25 02:50:36;;;;;;;17.52;10.02;;;10.10;99.90;;;;;;5043601;28;20924;-76
2023/05/25 02:53:03;;;;;;;17.27;9.82;;;10.10;99.90;;;;;;5037616;28;20426;-87
2023/05/25 02:55:28;;;;;;;20.90;10.38;;;10.10;99.90;;;;;;5041062;28;20443;-86
2023/05/25 02:57:54;;;;;;;20.97;9.93;;;9.90;99.90;;;;;;5033827;28;21334;-88
2023/05/25 03:00:20;;;;;;;19.77;11.83;;;9.90;99.90;;;;;;5030154;28;20424;-88
2023/05/25 03:02:47;;;;;;;22.07;11.10;;;9.80;99.90;;;;;;5023780;28;20434;-82
2023/05/25 03:05:14;;;;;;;16.58;9.10;;;9.80;99.90;;;;;;5036827;28;20772;-81
2023/05/25 03:07:40;;;;;;;17.97;9.90;;;9.80;99.90;;;;;;5035762;28;20917;-88
2023/05/25 03:10:06;;;;;;;17.80;10.45;;;9.70;99.90;;;;;;5034736;28;20431;-83
2023/05/25 03:12:32;;;;;;;16.08;9.52;;;9.90;99.90;;;;;;5027322;28;20435;-90
2023/05/25 03:14:58;;;;;;;17.40;10.63;;;9.80;99.90;;;;;;5043452;28;20427;-85
2023/05/25 03:17:23;;;;;;;16.98;9.60;;;9.90;99.90;;;;;;5039111;28;20508;-88
2023/05/25 03:19:49;;;;;;;19.93;9.83;;;9.80;99.90;;;;;;5034048;28;20816;-88
2023/05/25 03:22:15;;;;;;;22.03;9.93;;;9.90;99.90;;;;;;5029724;28;20501;-88
2023/05/25 03:24:40;;;;;;;20.67;10.40;;;9.80;99.90;;;;;;5037097;28;20417;-89
2023/05/25 03:27:07;;;;;;;21.50;11.07;;;9.90;99.90;;;;;;5038283;28;20451;-87
2023/05/25 03:29:33;;;;;;;19.00;11.40;;;9.80;99.90;;;;;;5020040;28;20431;-90
2023/05/25 03:31:59;;;;;;;20.07;12.80;;;10.30;99.90;;;;;;5025267;28;20522;-83
2023/05/25 03:34:25;;;;;;;22.93;10.37;;;9.80;99.90;;;;;;5039080;28;20421;-88
2023/05/25 03:36:53;;;;;;;25.42;11.05;;;9.80;99.90;;;;;;5031966;28;20438;-88
2023/05/25 03:39:20;;;;;;;17.95;10.20;;;9.70;99.90;;;;;;5027232;28;20510;-89
2023/05/25 03:41:46;;;;;;;18.23;10.85;;;9.80;99.90;;;;;;5035063;28;20508;-84
2023/05/25 03:44:12;;;;;;;22.85;10.88;;;9.80;99.90;;;;;;5042510;28;20489;-86
2023/05/25 03:46:38;;;;;;;17.23;11.20;;;9.70;99.90;;;;;;5025885;28;20885;-89
2023/05/25 03:49:04;;;;;;;18.45;10.23;;;9.70;99.90;;;;;;5025858;28;20429;-87
2023/05/25 03:51:30;;;;;;;19.40;12.05;;;9.80;99.90;;;;;;5034710;28;20435;-89
2023/05/25 03:53:55;;;;;;;19.83;10.73;;;9.80;99.90;;;;;;5024490;28;20606;-88
2023/05/25 03:56:22;;;;;;;17.40;10.85;;;9.90;99.90;;;;;;5039310;28;20538;-88
2023/05/25 03:58:48;;;;;;;17.80;10.32;;;10.10;99.90;;;;;;5023593;28;20980;-77
2023/05/25 04:01:13;;;;;;;17.92;11.23;;;9.90;99.90;;;;;;5029796;28;20420;-85
2023/05/25 04:03:39;;;;;;;19.20;10.43;;;10.20;99.90;;;;;;5023196;28;20426;-87
2023/05/25 04:06:05;;;;;;;24.87;10.90;;;10.30;99.90;;;;;;5036544;28;20427;-87
2023/05/25 04:08:30;;;;;;;13.33;9.87;;;10.10;99.90;;;;;;5027217;28;20434;-86
2023/05/25 04:10:56;;;;;;;19.73;10.53;;;10.40;99.90;;;;;;5037114;28;20469;-85
2023/05/25 04:13:22;;;;;;;22.83;11.30;;;10.40;99.90;;;;;;5045927;28;20451;-81
2023/05/25 04:15:49;;;;;;;17.90;10.77;;;10.40;99.90;;;;;;5034734;28;20471;-82
2023/05/25 04:18:15;;;;;;;19.40;10.67;;;10.50;99.90;;;;;;5037757;28;20428;-89
2023/05/25 04:20:40;;;;;;;22.33;10.73;;;10.90;99.90;;;;;;5030530;28;20781;-84
2023/05/25 04:23:06;;;;;;;19.60;10.93;;;10.80;99.90;;;;;;5037511;28;20828;-88
2023/05/25 04:25:32;;;;;;;18.80;10.10;;;10.80;99.90;;;;;;5018820;28;20425;-84
2023/05/25 04:27:57;;;;;;;15.68;9.77;;;10.90;99.90;;;;;;5021952;28;20752;-84
2023/05/25 04:30:23;;;;;;;18.63;10.20;;;11.00;99.90;;;;;;5036319;28;20426;-82
2023/05/25 04:32:49;;;;;;;21.88;10.88;;;10.90;99.90;;;;;;5036412;28;21050;-87
2023/05/25 04:35:15;;;;;;;21.27;11.05;;;10.80;99.90;;;;;;5042253;28;20417;-86
2023/05/25 04:37:41;;;;;;;14.07;9.82;;;10.90;99.90;;;;;;5037337;28;20458;-89
2023/05/25 04:40:12;;;;;;;19.38;11.18;;;11.10;99.90;;;;;;5030630;28;20461;-82
2023/05/25 04:42:39;;;;;;;17.77;9.52;;;10.90;99.90;;;;;;5042766;28;20437;-82
2023/05/25 04:45:09;;;;;;;18.05;9.38;;;10.90;99.90;;;;;;5033019;28;20561;-87
2023/05/25 04:47:36;;;;;;;19.17;10.23;;;10.90;99.90;;;;;;5033805;28;20424;-83
2023/05/25 04:50:03;;;;;;;19.98;9.88;;;10.90;99.90;;;;;;5035539;28;21043;-89
2023/05/25 04:52:28;;;;;;;17.13;9.55;;;10.80;99.90;;;;;;5031573;28;20423;-87
2023/05/25 04:54:54;;;;;;;20.77;11.02;;;11.00;99.90;;;;;;5047706;28;20436;-87
2023/05/25 04:57:21;;;;;;;22.75;11.23;;;11.00;99.90;;;;;;5037991;28;20490;-75
2023/05/25 04:59:46;;;;;;;21.70;11.10;;;11.10;99.90;;;;;;5045508;28;20479;-79
2023/05/25 05:02:12;;;;;;;22.77;9.73;;;11.10;99.90;;;;;;5049313;28;20518;-79
2023/05/25 05:04:40;;;;;;;17.25;9.65;;;11.10;99.90;;;;;;5055677;28;20471;-82
2023/05/25 05:07:06;;;;;;;19.85;9.90;;;11.20;99.90;;;;;;5043314;28;20435;-82
2023/05/25 05:09:32;;;;;;;16.52;9.43;;;11.20;99.90;;;;;;5055744;28;20425;-85
2023/05/25 05:11:58;;;;;;;23.92;10.30;;;11.30;99.90;;;;;;5054519;28;20446;-80
2023/05/25 05:14:23;;;;;;;16.50;9.38;;;11.30;99.90;;;;;;5045621;28;20477;-82
2023/05/25 05:16:50;;;;;;;19.65;9.43;;;11.40;99.90;;;;;;5040661;28;20455;-83
2023/05/25 05:19:15;;;;;;;22.25;10.48;;;11.40;99.90;;;;;;5040286;28;20513;-78
2023/05/25 05:21:41;;;;;;;15.25;9.07;;;11.50;99.90;;;;;;5035920;28;20518;-85
2023/05/25 05:24:07;;;;;;;19.15;10.50;;;11.40;99.90;;;;;;5027995;28;20411;-84
2023/05/25 05:26:32;;;;;;;18.55;9.57;;;11.60;99.90;;;;;;5028597;28;20423;-76
2023/05/25 05:28:58;;;;;;;20.13;10.50;;;11.70;99.90;;;;;;5027049;28;20945;-84
2023/05/25 05:31:26;;;;;;;21.47;10.07;;;11.60;99.90;;;;;;5039006;28;20514;-84
2023/05/25 05:33:51;;;;;;;20.95;10.15;;;11.80;99.90;;;;;;5031680;28;20465;-86
2023/05/25 05:36:17;;;;;;;18.67;9.17;;;11.60;99.90;;;;;;5035404;28;20568;-79
2023/05/25 05:38:45;;;;;;;19.27;10.18;;;11.80;99.90;;;;;;5039738;28;20530;-85
2023/05/25 05:41:14;;;;;;;17.42;9.38;;;11.80;99.90;;;;;;5031243;28;20429;-86
2023/05/25 05:43:41;;;;;;;17.27;9.35;;;11.80;99.90;;;;;;5030173;28;20427;-78
2023/05/25 05:46:08;;;;;;;21.15;9.50;;;12.00;99.90;;;;;;5034808;28;20425;-85
2023/05/25 05:48:34;;;;;;;18.80;9.60;;;11.90;99.90;;;;;;5037248;28;20463;-82
2023/05/25 05:51:00;;;;;;;23.67;10.32;;;11.90;99.90;;;;;;5028662;28;20425;-78
2023/05/25 05:53:25;;;;;;;19.58;9.65;;;12.00;99.90;;;;;;5028977;28;20843;-81
2023/05/25 05:55:56;;;;;;;17.40;9.70;;;12.10;99.90;;;;;;5038261;28;20427;-85
2023/05/25 05:58:22;;;;;;;20.63;9.27;;;12.20;99.90;;;;;;5026369;28;20424;-84
2023/05/25 06:00:47;;;;;;;20.20;9.57;;;12.10;99.90;;;;;;5028724;28;20785;-76
2023/05/25 06:03:13;;;;;;;15.87;8.07;;;12.10;99.90;;;;;;5047104;28;20415;-85
2023/05/25 06:05:39;;;;;;;18.92;9.45;;;12.40;99.90;;;;;;5030433;28;20504;-81
2023/05/25 06:08:06;;;;;;;17.00;8.77;;;12.10;99.90;;;;;;5025750;28;20423;-76
2023/05/25 06:10:32;;;;;;;16.55;7.90;;;12.30;99.90;;;;;;4967223;28;1784728;-83
2023/05/25 06:12:58;;;;;;;19.45;7.80;;;12.40;99.90;;;;;;5047654;28;21027;-82
2023/05/25 06:15:23;;;;;;;17.40;7.47;;;12.40;99.90;;;;;;5027075;28;20441;-86
2023/05/25 06:17:49;;;;;;;19.10;8.47;;;12.20;99.90;;;;;;5037347;28;20421;-77
2023/05/25 06:20:15;;;;;;;22.05;8.82;;;12.30;99.90;;;;;;5041643;28;21430;-91
2023/05/25 06:22:40;;;;;;;17.83;8.77;;;12.40;99.90;;;;;;5051537;28;20893;-86
2023/05/25 06:25:09;;;;;;;18.03;8.07;;;12.60;99.90;;;;;;5030107;28;20434;-78
2023/05/25 06:27:35;;;;;;;19.08;7.55;;;12.70;99.90;;;;;;5034846;28;20437;-88
2023/05/25 06:30:01;;;;;;;16.13;8.67;;;12.60;99.90;;;;;;5035973;28;20475;-90
2023/05/25 06:32:26;;;;;;;19.07;8.47;;;12.70;99.90;;;;;;5035899;28;20429;-87
2023/05/25 06:34:52;;;;;;;14.17;7.47;;;13.00;99.90;;;;;;5026199;28;20431;-89
2023/05/25 06:37:18;;;;;;;13.47;4.83;;;12.80;99.90;;;;;;5034688;28;20519;-78
2023/05/25 06:39:43;;;;;;;14.05;5.88;;;13.00;99.90;;;;;;5029633;28;20499;-85
2023/05/25 06:42:10;;;;;;;17.50;6.53;;;13.00;99.90;;;;;;5039757;28;20901;-82
2023/05/25 06:44:36;;;;;;;16.45;5.00;;;12.90;99.90;;;;;;5043767;28;20464;-85
2023/05/25 06:47:02;;;;;;;19.50;6.43;;;13.10;99.90;;;;;;5051193;28;20435;-84
2023/05/25 06:49:28;;;;;;;14.07;5.43;;;13.20;99.90;;;;;;5029023;28;20423;-88
2023/05/25 06:51:54;;;;;;;16.42;4.55;;;13.30;99.90;;;;;;5032307;28;20477;-83
2023/05/25 06:54:20;;;;;;;13.40;4.00;;;13.10;99.90;;;;;;5026241;28;20425;-90
2023/05/25 06:56:46;;;;;;;17.30;4.50;;;13.10;99.90;;;;;;5030924;28;20929;-82
2023/05/25 06:59:11;;;;;;;16.50;5.10;;;13.00;99.90;;;;;;5031451;28;20415;-82
2023/05/25 07:01:37;;;;;;;13.23;4.25;;;13.10;99.90;;;;;;5051514;28;20457;-84
2023/05/25 07:04:03;;;;;;;14.05;5.07;;;13.40;99.90;;;;;;5046677;28;20457;-80
2023/05/25 07:06:28;;;;;;;14.80;5.90;;;13.40;99.90;;;;;;5045585;28;20427;-83
2023/05/25 07:08:54;;;;;;;17.30;5.63;;;13.60;99.90;;;;;;5034881;28;20437;-83
2023/05/25 07:11:20;;;;;;;15.03;4.50;;;13.50;99.90;;;;;;5034209;28;20523;-83
2023/05/25 07:13:47;;;;;;;16.67;4.93;;;13.70;99.90;;;;;;5056752;28;20447;-74
2023/05/25 07:16:13;;;;;;;18.20;4.65;;;13.40;99.90;;;;;;5050051;28;20414;-76
2023/05/25 07:18:39;;;;;;;16.52;4.72;;;13.30;99.90;;;;;;5046947;28;20411;-81
2023/05/25 07:21:08;;;;;;;21.38;7.00;;;13.20;99.90;;;;;;5052726;28;20442;-81
2023/05/25 07:23:35;;;;;;;17.08;6.03;;;13.30;99.90;;;;;;5026892;28;20488;-80
2023/05/25 07:26:01;;;;;;;11.60;4.65;;;13.20;99.90;;;;;;5049932;28;20488;-76
2023/05/25 07:28:26;;;;;;;19.23;4.90;;;13.50;99.90;;;;;;5033290;28;20466;-89
2023/05/25 07:30:52;;;;;;;14.93;4.35;;;13.40;99.90;;;;;;5034009;28;20414;-85
2023/05/25 07:33:18;;;;;;;16.60;4.03;;;13.70;99.90;;;;;;5029879;28;20430;-82
2023/05/25 07:35:43;;;;;;;17.73;5.07;;;13.80;99.90;;;;;;5033090;28;20419;-86
2023/05/25 07:38:09;;;;;;;18.53;4.90;;;13.80;99.90;;;;;;5027346;28;20443;-87
2023/05/25 07:40:35;;;;;;;18.27;4.78;;;13.90;99.90;;;;;;5029104;28;20430;-90
2023/05/25 07:43:01;;;;;;;13.43;5.30;;;14.10;99.90;;;;;;5036795;28;20423;-84
2023/05/25 07:45:26;;;;;;;15.90;4.80;;;13.90;99.90;;;;;;5033597;28;20418;-88
2023/05/25 07:47:55;;;;;;;16.92;4.75;;;14.10;99.90;;;;;;5032913;28;20448;-87
2023/05/25 07:50:22;;;;;;;16.13;4.77;;;13.80;99.90;;;;;;5032789;28;20427;-85
2023/05/25 07:52:48;;;;;;;16.77;5.10;;;14.00;99.90;;;;;;5032129;28;20470;-78
2023/05/25 07:55:13;;;;;;;19.00;6.63;;;13.90;99.90;;;;;;5034286;28;20434;-87
2023/05/25 07:57:39;;;;;;;17.30;4.73;;;13.70;99.90;;;;;;5031993;28;20511;-86
2023/05/25 08:00:09;;;;;;;21.00;5.40;;;13.90;99.90;;;;;;5032906;28;20418;-83
2023/05/25 08:02:35;;;;;;;18.35;5.38;;;14.20;99.90;;;;;;5031803;28;20417;-87
2023/05/25 08:05:04;;;;;;;13.10;4.53;;;14.00;99.90;;;;;;5030375;28;20439;-84
2023/05/25 08:07:31;;;;;;;14.70;4.85;;;13.90;99.90;;;;;;5028764;28;20524;-81
2023/05/25 08:09:57;;;;;;;20.80;4.97;;;14.10;99.90;;;;;;5028886;28;20433;-85
2023/05/25 08:12:23;;;;;;;17.80;5.35;;;13.90;99.90;;;;;;5030149;28;20790;-84
2023/05/25 08:14:49;;;;;;;16.52;5.60;;;13.80;99.90;;;;;;5030593;28;20422;-86
2023/05/25 08:17:15;;;;;;;18.95;5.65;;;14.00;99.90;;;;;;5032495;28;20435;-84
2023/05/25 08:19:41;;;;;;;17.70;4.95;;;13.90;99.90;;;;;;5031881;28;20513;-85
2023/05/25 08:22:06;;;;;;;21.40;7.30;;;13.70;99.90;;;;;;5037332;28;20429;-86
2023/05/25 08:24:32;;;;;;;23.53;6.33;;;13.60;99.90;;;;;;5028814;28;20433;-75
2023/05/25 08:26:58;;;;;;;19.07;5.53;;;13.50;99.90;;;;;;5040963;28;20518;-78
2023/05/25 08:29:23;;;;;;;22.37;6.40;;;14.30;99.90;;;;;;5041324;28;20527;-83
2023/05/25 08:31:50;;;;;;;16.57;4.83;;;14.80;99.90;;;;;;5039943;28;20474;-75
2023/05/25 08:34:16;;;;;;;16.60;4.83;;;14.60;99.90;;;;;;5044068;28;20415;-82
2023/05/25 08:36:41;;;;;;;20.37;5.93;;;14.70;99.90;;;;;;5044548;28;20461;-73
2023/05/25 08:39:08;;;;;;;20.47;5.23;;;14.70;99.90;;;;;;5050219;28;20403;-80
2023/05/25 08:41:43;;;;;;;16.58;5.25;;;14.30;99.90;;;;;;5044516;28;20453;-79
2023/05/25 08:44:09;;;;;;;19.52;4.97;;;14.30;99.90;;;;;;5044746;28;20399;-81
2023/05/25 08:46:35;;;;;;;20.65;5.55;;;14.10;99.90;;;;;;5040748;28;20502;-75
2023/05/25 08:49:08;;;;;;;23.38;5.88;;;13.90;99.90;;;;;;5041171;28;20442;-86
2023/05/25 08:51:42;;;;;;;23.13;6.25;;;14.40;99.90;;;;;;5036075;28;20776;-87
2023/05/25 08:54:10;;;;;;;23.95;5.70;;;14.80;99.90;;;;;;5036214;28;20459;-82
2023/05/25 08:56:43;;;;;;;21.02;5.13;;;15.10;99.90;;;;;;5039115;28;20507;-89
2023/05/25 08:59:17;;;;;;;19.90;6.05;;;14.90;99.90;;;;;;5038781;28;20422;-88
2023/05/25 09:01:45;;;;;;;24.37;7.03;;;15.20;99.90;;;;;;5036423;28;20430;-88
2023/05/25 09:04:18;;;;;;;22.17;5.67;;;15.30;99.90;;;;;;5034000;28;20422;-89
2023/05/25 09:06:44;;;;;;;18.88;5.38;;;15.10;99.90;;;;;;5036379;28;20431;-86
2023/05/25 09:09:11;;;;;;;24.88;7.60;;;15.20;99.90;;;;;;5039715;28;20411;-84
2023/05/25 09:11:38;;;;;;;23.15;5.68;;;14.70;99.90;;;;;;5033412;28;20438;-83
2023/05/25 09:14:06;;;;;;;23.02;6.45;;;15.00;99.90;;;;;;5040950;28;20426;-86
2023/05/25 09:16:32;;;;;;;19.17;5.37;;;14.80;99.90;;;;;;5031061;28;20442;-87
2023/05/25 09:18:58;;;;;;;22.88;5.40;;;15.10;99.90;;;;;;5029530;28;20423;-89
2023/05/25 09:21:25;;;;;;;20.27;6.38;;;15.10;99.90;;;;;;5036287;28;20516;-90
2023/05/25 09:23:51;;;;;;;20.63;6.63;;;14.80;99.90;;;;;;5031929;28;21525;-81
2023/05/25 09:26:17;;;;;;;17.42;5.68;;;14.60;99.90;;;;;;5032364;28;20435;-81
2023/05/25 09:28:46;;;;;;;25.42;6.72;;;14.70;99.90;;;;;;5033129;28;20427;-74
2023/05/25 09:31:14;;;;;;;24.02;7.03;;;15.30;99.90;;;;;;5035535;28;20426;-91
2023/05/25 09:33:40;;;;;;;24.25;5.85;;;15.60;99.90;;;;;;5037410;28;20468;-82
2023/05/25 09:36:06;;;;;;;22.90;6.00;;;15.30;99.90;;;;;;5037679;28;20876;-83
2023/05/25 09:38:32;;;;;;;21.67;5.57;;;14.70;99.90;;;;;;5030145;28;20430;-90
2023/05/25 09:40:58;;;;;;;18.60;4.93;;;15.00;99.90;;;;;;5030341;28;20921;-79
2023/05/25 09:43:25;;;;;;;20.00;6.35;;;15.30;99.90;;;;;;5031281;28;20415;-85
2023/05/25 09:45:52;;;;;;;23.33;5.85;;;15.30;99.90;;;;;;5028524;28;20758;-79
2023/05/25 09:48:18;;;;;;;20.92;5.50;;;14.50;99.90;;;;;;5034578;28;20438;-75
2023/05/25 09:50:44;;;;;;;23.90;6.60;;;14.90;99.90;;;;;;5032549;28;20636;-83
2023/05/25 09:53:12;;;;;;;24.65;6.25;;;15.10;99.90;;;;;;5039747;28;20415;-78
2023/05/25 09:55:38;;;;;;;15.50;5.07;;;15.00;99.90;;;;;;5027918;28;20413;-81
2023/05/25 09:58:04;;;;;;;18.77;5.95;;;15.40;99.90;;;;;;5025517;28;20542;-86
2023/05/25 10:00:30;;;;;;;19.70;6.03;;;15.20;99.90;;;;;;5029522;28;20893;-86
2023/05/25 10:02:56;;;;;;;20.20;5.80;;;15.20;99.90;;;;;;5028318;28;20414;-81
2023/05/25 10:05:22;;;;;;;20.70;5.27;;;15.40;99.90;;;;;;5027300;28;20418;-79
2023/05/25 10:07:49;;;;;;;17.25;5.15;;;15.60;99.90;;;;;;5027669;28;20546;-73
2023/05/25 10:10:15;;;;;;;17.90;5.07;;;15.30;99.90;;;;;;5027524;28;20487;-83
2023/05/25 10:12:43;;;;;;;19.67;6.20;;;15.50;99.90;;;;;;5027378;28;20415;-86
2023/05/25 10:15:11;;;;;;;16.33;4.78;;;15.80;99.90;;;;;;5026469;28;20459;-81
2023/05/25 10:17:47;;;;;;;18.77;5.30;;;15.30;99.90;;;;;;5026132;28;20422;-85
2023/05/25 10:20:14;;;;;;;17.35;5.38;;;15.50;99.90;;;;;;5026443;28;20414;-84
2023/05/25 10:23:04;;;;;;;24.92;7.60;;;15.30;99.90;;;;;;5028774;28;20427;-86
2023/05/25 10:25:36;;;;;;;21.30;6.00;;;15.90;99.90;;;;;;5026510;28;20422;-75
2023/05/25 10:28:18;;;;;;;17.07;5.60;;;16.00;99.90;;;;;;5030146;28;20430;-81
2023/05/25 10:30:45;;;;;;;20.60;6.17;;;15.50;99.90;;;;;;5027609;28;20504;-80
2023/05/25 10:33:11;;;;;;;20.25;5.43;;;15.30;99.90;;;;;;5024044;28;20524;-82
2023/05/25 10:35:38;;;;;;;21.35;5.07;;;14.90;99.90;;;;;;5024062;28;20431;-83
2023/05/25 10:38:04;;;;;;;20.50;6.72;;;14.80;99.90;;;;;;5040413;28;20437;-83
2023/05/25 10:40:31;;;;;;;19.27;5.53;;;15.20;99.90;;;;;;5029165;28;20418;-81
2023/05/25 10:42:58;;;;;;;22.42;5.57;;;15.40;99.90;;;;;;5034758;28;20492;-82
2023/05/25 10:45:24;;;;;;;19.75;6.10;;;15.70;99.90;;;;;;5034320;28;20423;-80
2023/05/25 10:47:49;;;;;;;17.25;5.25;;;16.10;99.90;;;;;;5019210;28;20430;-82
2023/05/25 10:50:21;;;;;;;24.60;7.10;;;15.80;99.90;;;;;;5026549;28;20422;-77
2023/05/25 10:53:05;;;;;;;22.02;6.30;;;15.40;99.90;;;;;;5024261;28;20431;-79
2023/05/25 10:55:52;;;;;;;21.73;5.55;;;15.50;99.90;;;;;;5033661;28;20448;-76
2023/05/25 10:58:20;;;;;;;21.10;6.13;;;15.30;99.90;;;;;;5028796;28;20923;-76
2023/05/25 11:01:05;;;;;;;19.57;5.37;;;15.40;99.90;;;;;;5031526;28;20431;-78
2023/05/25 11:03:43;;;;;;;19.70;5.55;;;15.50;99.90;;;;;;5028525;28;20453;-80
2023/05/25 11:06:14;;;;;;;25.50;6.82;;;15.40;99.90;;;;;;5037732;28;20441;-79
2023/05/25 11:09:00;;;;;;;20.15;5.47;;;15.70;99.90;;;;;;5024939;28;20444;-77
2023/05/25 11:11:41;;;;;;;22.23;7.18;;;15.80;99.90;;;;;;5025243;28;20508;-81
2023/05/25 11:14:20;;;;;;;17.55;5.22;;;15.70;99.90;;;;;;5037940;28;20828;-73
2023/05/25 11:17:13;;;;;;;21.10;6.03;;;15.80;99.90;;;;;;5036197;28;20419;-76
2023/05/25 11:19:46;;;;;;;20.13;5.72;;;15.40;99.90;;;;;;5029670;28;20817;-81
2023/05/25 11:22:19;;;;;;;21.63;6.18;;;15.50;99.90;;;;;;5029584;28;20431;-81
2023/05/25 11:24:50;;;;;;;15.90;4.90;;;16.00;99.90;;;;;;5037362;28;20497;-81
2023/05/25 11:27:23;;;;;;;21.92;6.35;;;15.40;99.90;;;;;;5028228;28;20541;-82
2023/05/25 11:29:50;;;;;;;19.48;6.70;;;15.30;99.90;;;;;;5025252;28;20423;-82
2023/05/25 11:32:16;;;;;;;19.02;5.45;;;15.40;99.90;;;;;;5024420;28;20521;-82
2023/05/25 11:34:48;;;;;;;21.87;5.97;;;16.00;99.90;;;;;;5023186;28;20604;-79
2023/05/25 11:37:21;;;;;;;17.65;4.78;;;15.00;99.90;;;;;;5025147;28;20415;-77
2023/05/25 11:39:48;;;;;;;19.05;5.05;;;15.10;99.90;;;;;;5025491;28;20435;-78
2023/05/25 11:42:14;;;;;;;18.92;5.50;;;15.30;99.90;;;;;;5039157;28;20510;-81
2023/05/25 11:44:40;;;;;;;24.65;5.30;;;16.00;99.90;;;;;;5021066;28;20437;-75
2023/05/25 11:47:07;;;;;;;24.42;5.85;;;15.80;99.90;;;;;;5020901;28;20435;-82
2023/05/25 11:49:34;;;;;;;20.50;5.40;;;15.40;99.90;;;;;;5022693;28;20544;-80
2023/05/25 11:52:07;;;;;;;17.35;4.72;;;15.80;99.90;;;;;;5019491;28;20446;-77
2023/05/25 11:54:33;;;;;;;20.17;5.65;;;16.10;99.90;;;;;;5021966;28;20427;-76
2023/05/25 11:57:00;;;;;;;20.20;4.65;;;16.00;99.90;;;;;;5020579;28;20438;-80
2023/05/25 11:59:27;;;;;;;20.52;5.70;;;16.20;99.90;;;;;;5026282;28;20418;-80
2023/05/25 12:02:02;;;;;;;21.95;5.30;;;15.60;99.90;;;;;;5024168;28;20402;-74
2023/05/25 12:04:29;;;;;;;14.57;5.18;;;16.30;99.90;;;;;;5020464;28;20485;-80
2023/05/25 12:07:06;;;;;;;16.05;5.15;;;15.90;99.90;;;;;;5022787;28;20427;-77
2023/05/25 12:09:33;;;;;;;21.67;6.25;;;15.70;99.90;;;;;;5021363;28;20426;-76
2023/05/25 12:11:59;;;;;;;19.40;6.35;;;15.80;99.90;;;;;;5026166;28;20434;-79
2023/05/25 12:14:25;;;;;;;18.58;5.32;;;15.90;99.90;;;;;;5026192;28;20468;-83
2023/05/25 12:16:55;;;;;;;22.23;5.90;;;16.20;99.90;;;;;;5026605;28;20423;-81
2023/05/25 12:19:21;;;;;;;19.57;5.80;;;15.80;99.90;;;;;;5027611;28;20477;-80
2023/05/25 12:21:50;;;;;;;25.20;5.43;;;15.90;99.90;;;;;;5032368;28;20433;-81
2023/05/25 12:24:17;;;;;;;20.08;5.55;;;15.60;99.90;;;;;;5008553;28;20469;-75
2023/05/25 12:26:50;;;;;;;23.77;8.25;;;15.60;99.90;;;;;;5026722;28;20439;-80
2023/05/25 12:29:16;;;;;;;20.50;5.93;;;15.30;99.90;;;;;;5024815;28;20431;-79
2023/05/25 12:31:42;;;;;;;19.47;6.17;;;15.20;99.90;;;;;;5029806;28;20419;-73
2023/05/25 12:34:11;;;;;;;20.53;5.30;;;14.60;99.90;;;;;;5030450;28;20426;-80
2023/05/25 12:36:51;;;;;;;20.08;6.65;;;15.00;99.90;;;;;;5038976;28;21182;-73